sensor_id;sensor_type;location;lat;lon;timestamp;pressure;altitude;pressure_sealevel;temperature;humidity
29169;BME280;16219;42.864;23.360;2022-08-21T00:01:24;95250.16;;;20.21;100.00
29169;BME280;16219;42.864;23.360;2022-08-21T00:03:54;95245.22;;;20.23;100.00
29169;BME280;16219;42.864;23.360;2022-08-21T00:06:21;95245.97;;;20.31;100.00
29169;BME280;16219;42.864;23.360;2022-08-21T00:08:49;95232.94;;;20.29;100.00
29169;BME280;16219;42.864;23.360;2022-08-21T00:11:17;95225.31;;;20.24;100.00
29169;BME280;16219;42.864;23.360;2022-08-21T00:13:44;95245.97;;;20.27;100.00
29169;BME280;16219;42.864;23.360;2022-08-21T00:16:11;95243.69;;;20.22;100.00
29169;BME280;16219;42.864;23.360;2022-08-21T00:18:39;95242.91;;;20.25;100.00
29169;BME280;16219;42.864;23.360;2022-08-21T00:21:07;95237.53;;;20.21;100.00
29169;BME280;16219;42.864;23.360;2022-08-21T00:23:35;95236.78;;;20.21;100.00
29169;BME280;16219;42.864;23.360;2022-08-21T00:26:03;95245.59;;;20.18;100.00
29169;BME280;16219;42.864;23.360;2022-08-21T00:28:30;95238.34;;;20.11;100.00
29169;BME280;16219;42.864;23.360;2022-08-21T00:30:58;95226.84;;;20.04;100.00
29169;BME280;16219;42.864;23.360;2022-08-21T00:33:26;95220.75;;;20.00;100.00
29169;BME280;16219;42.864;23.360;2022-08-21T00:35:53;95223.81;;;19.94;100.00
29169;BME280;16219;42.864;23.360;2022-08-21T00:38:22;95224.22;;;19.96;100.00
29169;BME280;16219;42.864;23.360;2022-08-21T00:40:51;95221.13;;;20.02;100.00
29169;BME280;16219;42.864;23.360;2022-08-21T00:43:22;95219.97;;;20.03;100.00
29169;BME280;16219;42.864;23.360;2022-08-21T00:45:49;95217.31;;;20.06;100.00
29169;BME280;16219;42.864;23.360;2022-08-21T00:48:17;95219.59;;;20.08;100.00
29169;BME280;16219;42.864;23.360;2022-08-21T00:50:48;95219.97;;;20.10;100.00
29169;BME280;16219;42.864;23.360;2022-08-21T00:53:16;95218.47;;;20.05;100.00
29169;BME280;16219;42.864;23.360;2022-08-21T00:55:46;95234.16;;;19.92;100.00
29169;BME280;16219;42.864;23.360;2022-08-21T00:58:14;95236.06;;;19.85;100.00
29169;BME280;16219;42.864;23.360;2022-08-21T01:00:43;95241.78;;;19.87;100.00
29169;BME280;16219;42.864;23.360;2022-08-21T01:03:13;95242.19;;;19.89;100.00
29169;BME280;16219;42.864;23.360;2022-08-21T01:05:42;95243.31;;;19.91;100.00
29169;BME280;16219;42.864;23.360;2022-08-21T01:08:10;95228.81;;;19.85;100.00
29169;BME280;16219;42.864;23.360;2022-08-21T01:10:37;95237.59;;;19.82;100.00
29169;BME280;16219;42.864;23.360;2022-08-21T01:13:07;95237.59;;;19.89;100.00
29169;BME280;16219;42.864;23.360;2022-08-21T01:15:38;95230.72;;;19.88;100.00
29169;BME280;16219;42.864;23.360;2022-08-21T01:18:08;95228.41;;;19.94;100.00
29169;BME280;16219;42.864;23.360;2022-08-21T01:20:38;95225.72;;;19.87;100.00
29169;BME280;16219;42.864;23.360;2022-08-21T01:23:09;95221.16;;;19.80;100.00
29169;BME280;16219;42.864;23.360;2022-08-21T01:25:36;95216.16;;;19.75;100.00
29169;BME280;16219;42.864;23.360;2022-08-21T01:28:09;95206.25;;;19.68;100.00
29169;BME280;16219;42.864;23.360;2022-08-21T01:30:40;95211.59;;;19.65;100.00
29169;BME280;16219;42.864;23.360;2022-08-21T01:33:09;95201.66;;;19.69;100.00
29169;BME280;16219;42.864;23.360;2022-08-21T01:35:36;95210.81;;;19.75;100.00
29169;BME280;16219;42.864;23.360;2022-08-21T01:38:04;95206.25;;;19.76;100.00
29169;BME280;16219;42.864;23.360;2022-08-21T01:40:32;95202.03;;;19.78;100.00
29169;BME280;16219;42.864;23.360;2022-08-21T01:42:59;95203.19;;;19.77;100.00
29169;BME280;16219;42.864;23.360;2022-08-21T01:45:28;95210.06;;;19.75;100.00
29169;BME280;16219;42.864;23.360;2022-08-21T01:47:55;95209.31;;;19.67;100.00
29169;BME280;16219;42.864;23.360;2022-08-21T01:50:22;95203.56;;;19.72;100.00
29169;BME280;16219;42.864;23.360;2022-08-21T01:52:50;95208.53;;;19.66;100.00
29169;BME280;16219;42.864;23.360;2022-08-21T01:55:18;95203.16;;;19.56;100.00
29169;BME280;16219;42.864;23.360;2022-08-21T01:57:48;95214.63;;;19.60;100.00
29169;BME280;16219;42.864;23.360;2022-08-21T02:00:18;95222.28;;;19.65;100.00
29169;BME280;16219;42.864;23.360;2022-08-21T02:02:48;95211.56;;;19.43;100.00
29169;BME280;16219;42.864;23.360;2022-08-21T02:05:16;95206.97;;;19.55;100.00
29169;BME280;16219;42.864;23.360;2022-08-21T02:07:47;95199.31;;;19.57;100.00
29169;BME280;16219;42.864;23.360;2022-08-21T02:10:17;95211.22;;;19.63;100.00
29169;BME280;16219;42.864;23.360;2022-08-21T02:12:47;95216.19;;;19.61;100.00
29169;BME280;16219;42.864;23.360;2022-08-21T02:15:15;95213.88;;;19.59;100.00
29169;BME280;16219;42.864;23.360;2022-08-21T02:17:46;95212.34;;;19.51;100.00
29169;BME280;16219;42.864;23.360;2022-08-21T02:20:18;95212.72;;;19.46;100.00
29169;BME280;16219;42.864;23.360;2022-08-21T02:22:45;95213.09;;;19.48;100.00
29169;BME280;16219;42.864;23.360;2022-08-21T02:25:13;95221.50;;;19.54;100.00
29169;BME280;16219;42.864;23.360;2022-08-21T02:27:41;95216.16;;;19.46;100.00
29169;BME280;16219;42.864;23.360;2022-08-21T02:30:12;95215.00;;;19.44;100.00
29169;BME280;16219;42.864;23.360;2022-08-21T02:32:40;95219.19;;;19.52;100.00
29169;BME280;16219;42.864;23.360;2022-08-21T02:35:09;95214.63;;;19.42;100.00
29169;BME280;16219;42.864;23.360;2022-08-21T02:37:43;95226.84;;;19.46;100.00
29169;BME280;16219;42.864;23.360;2022-08-21T02:40:11;95229.13;;;19.48;100.00
29169;BME280;16219;42.864;23.360;2022-08-21T02:42:39;95229.53;;;19.50;100.00
29169;BME280;16219;42.864;23.360;2022-08-21T02:45:07;95236.41;;;19.55;100.00
29169;BME280;16219;42.864;23.360;2022-08-21T02:47:36;95236.03;;;19.56;100.00
29169;BME280;16219;42.864;23.360;2022-08-21T02:50:05;95242.94;;;19.61;100.00
29169;BME280;16219;42.864;23.360;2022-08-21T02:52:33;95237.16;;;19.52;100.00
29169;BME280;16219;42.864;23.360;2022-08-21T02:55:00;95252.50;;;19.62;100.00
29169;BME280;16219;42.864;23.360;2022-08-21T02:57:27;95249.44;;;19.63;100.00
29169;BME280;16219;42.864;23.360;2022-08-21T02:59:57;95259.72;;;19.58;100.00
29169;BME280;16219;42.864;23.360;2022-08-21T03:02:24;95266.22;;;19.57;100.00
29169;BME280;16219;42.864;23.360;2022-08-21T03:04:52;95271.56;;;19.53;100.00
29169;BME280;16219;42.864;23.360;2022-08-21T03:07:20;95274.66;;;19.59;100.00
29169;BME280;16219;42.864;23.360;2022-08-21T03:09:47;95264.28;;;19.54;100.00
29169;BME280;16219;42.864;23.360;2022-08-21T03:12:14;95268.13;;;19.53;100.00
29169;BME280;16219;42.864;23.360;2022-08-21T03:14:41;95262.75;;;19.49;100.00
29169;BME280;16219;42.864;23.360;2022-08-21T03:17:09;95268.13;;;19.53;100.00
29169;BME280;16219;42.864;23.360;2022-08-21T03:19:36;95261.25;;;19.59;100.00
29169;BME280;16219;42.864;23.360;2022-08-21T03:22:05;95267.41;;;19.66;100.00
29169;BME280;16219;42.864;23.360;2022-08-21T03:24:32;95259.38;;;19.63;100.00
29169;BME280;16219;42.864;23.360;2022-08-21T03:26:59;95261.28;;;19.66;100.00
29169;BME280;16219;42.864;23.360;2022-08-21T03:29:26;95262.81;;;19.70;100.00
29169;BME280;16219;42.864;23.360;2022-08-21T03:31:54;95260.16;;;19.63;100.00
29169;BME280;16219;42.864;23.360;2022-08-21T03:34:21;95263.19;;;19.65;100.00
29169;BME280;16219;42.864;23.360;2022-08-21T03:36:48;95249.00;;;19.58;100.00
29169;BME280;16219;42.864;23.360;2022-08-21T03:39:17;95270.47;;;19.65;100.00
29169;BME280;16219;42.864;23.360;2022-08-21T03:41:45;95263.19;;;19.55;100.00
29169;BME280;16219;42.864;23.360;2022-08-21T03:44:12;95260.13;;;19.60;100.00
29169;BME280;16219;42.864;23.360;2022-08-21T03:46:39;95256.72;;;19.63;100.00
29169;BME280;16219;42.864;23.360;2022-08-21T03:49:07;95255.16;;;19.62;100.00
29169;BME280;16219;42.864;23.360;2022-08-21T03:51:34;95252.13;;;19.67;100.00
29169;BME280;16219;42.864;23.360;2022-08-21T03:54:03;95254.78;;;19.70;100.00
29169;BME280;16219;42.864;23.360;2022-08-21T03:56:32;95256.31;;;19.75;100.00
29169;BME280;16219;42.864;23.360;2022-08-21T03:58:59;95253.66;;;19.71;100.00
29169;BME280;16219;42.864;23.360;2022-08-21T04:01:28;95248.66;;;19.70;100.00
29169;BME280;16219;42.864;23.360;2022-08-21T04:03:57;95247.16;;;19.69;100.00
29169;BME280;16219;42.864;23.360;2022-08-21T04:06:25;95242.94;;;19.68;100.00
29169;BME280;16219;42.864;23.360;2022-08-21T04:08:53;95250.56;;;19.66;100.00
29169;BME280;16219;42.864;23.360;2022-08-21T04:11:21;95249.06;;;19.68;100.00
29169;BME280;16219;42.864;23.360;2022-08-21T04:13:50;95251.34;;;19.73;100.00
29169;BME280;16219;42.864;23.360;2022-08-21T04:16:17;95255.97;;;19.80;100.00
29169;BME280;16219;42.864;23.360;2022-08-21T04:18:46;95248.31;;;19.68;100.00
29169;BME280;16219;42.864;23.360;2022-08-21T04:21:14;95244.84;;;19.64;100.00
29169;BME280;16219;42.864;23.360;2022-08-21T04:23:43;95223.03;;;19.47;100.00
29169;BME280;16219;42.864;23.360;2022-08-21T04:26:10;95247.53;;;19.64;100.00
29169;BME280;16219;42.864;23.360;2022-08-21T04:28:37;95252.13;;;19.67;100.00
29169;BME280;16219;42.864;23.360;2022-08-21T04:31:07;95255.94;;;19.66;100.00
29169;BME280;16219;42.864;23.360;2022-08-21T04:33:35;95250.56;;;19.66;100.00
29169;BME280;16219;42.864;23.360;2022-08-21T04:36:02;95259.78;;;19.72;100.00
29169;BME280;16219;42.864;23.360;2022-08-21T04:38:31;95259.00;;;19.71;100.00
29169;BME280;16219;42.864;23.360;2022-08-21T04:40:58;95244.44;;;19.58;100.00
29169;BME280;16219;42.864;23.360;2022-08-21T04:43:26;95265.13;;;19.65;100.00
29169;BME280;16219;42.864;23.360;2022-08-21T04:45:54;95254.41;;;19.65;100.00
29169;BME280;16219;42.864;23.360;2022-08-21T04:48:23;95259.78;;;19.68;100.00
29169;BME280;16219;42.864;23.360;2022-08-21T04:50:54;95254.41;;;19.68;100.00
29169;BME280;16219;42.864;23.360;2022-08-21T04:53:27;95255.53;;;19.57;100.00
29169;BME280;16219;42.864;23.360;2022-08-21T04:56:01;95254.41;;;19.68;100.00
29169;BME280;16219;42.864;23.360;2022-08-21T04:58:30;95261.31;;;19.77;100.00
29169;BME280;16219;42.864;23.360;2022-08-21T05:01:00;95259.00;;;19.75;100.00
29169;BME280;16219;42.864;23.360;2022-08-21T05:03:30;95262.47;;;19.76;100.00
29169;BME280;16219;42.864;23.360;2022-08-21T05:06:00;95261.66;;;19.75;100.00
29169;BME280;16219;42.864;23.360;2022-08-21T05:08:28;95261.66;;;19.75;100.00
29169;BME280;16219;42.864;23.360;2022-08-21T05:10:56;95268.19;;;19.78;100.00
29169;BME280;16219;42.864;23.360;2022-08-21T05:13:24;95265.50;;;19.81;100.00
29169;BME280;16219;42.864;23.360;2022-08-21T05:15:51;95266.28;;;19.85;100.00
29169;BME280;16219;42.864;23.360;2022-08-21T05:18:19;95265.13;;;19.83;100.00
29169;BME280;16219;42.864;23.360;2022-08-21T05:20:47;95268.19;;;19.88;100.00
29169;BME280;16219;42.864;23.360;2022-08-21T05:23:17;95257.09;;;19.93;100.00
29169;BME280;16219;42.864;23.360;2022-08-21T05:25:44;95268.56;;;20.12;100.00
29169;BME280;16219;42.864;23.360;2022-08-21T05:28:11;95265.84;;;20.30;100.00
29169;BME280;16219;42.864;23.360;2022-08-21T05:30:39;95254.38;;;20.29;100.00
29169;BME280;16219;42.864;23.360;2022-08-21T05:33:07;95265.44;;;20.38;100.00
29169;BME280;16219;42.864;23.360;2022-08-21T05:35:39;95238.69;;;20.24;100.00
29169;BME280;16219;42.864;23.360;2022-08-21T05:38:11;95257.03;;;20.51;100.00
29169;BME280;16219;42.864;23.360;2022-08-21T05:40:40;95261.97;;;20.66;100.00
29169;BME280;16219;42.864;23.360;2022-08-21T05:43:11;95260.41;;;20.76;100.00
29169;BME280;16219;42.864;23.360;2022-08-21T05:45:39;95264.25;;;20.75;100.00
29169;BME280;16219;42.864;23.360;2022-08-21T05:48:07;95259.63;;;20.83;100.00
29169;BME280;16219;42.864;23.360;2022-08-21T05:50:35;95256.56;;;20.81;100.00
29169;BME280;16219;42.864;23.360;2022-08-21T05:53:03;95263.00;;;20.97;100.00
29169;BME280;16219;42.864;23.360;2022-08-21T05:55:31;95262.63;;;20.92;100.00
29169;BME280;16219;42.864;23.360;2022-08-21T05:57:59;95260.78;;;20.82;100.00
29169;BME280;16219;42.864;23.360;2022-08-21T06:00:28;95260.38;;;20.87;100.00
29169;BME280;16219;42.864;23.360;2022-08-21T06:02:56;95250.00;;;20.92;100.00
29169;BME280;16219;42.864;23.360;2022-08-21T06:05:23;95255.25;;;21.14;100.00
29169;BME280;16219;42.864;23.360;2022-08-21T06:07:53;95243.56;;;21.53;100.00
29169;BME280;16219;42.864;23.360;2022-08-21T06:10:21;95265.25;;;21.80;100.00
29169;BME280;16219;42.864;23.360;2022-08-21T06:12:54;95263.63;;;21.89;100.00
29169;BME280;16219;42.864;23.360;2022-08-21T06:15:21;95262.94;;;21.78;100.00
29169;BME280;16219;42.864;23.360;2022-08-21T06:17:49;95266.88;;;21.66;100.00
29169;BME280;16219;42.864;23.360;2022-08-21T06:20:16;95261.53;;;21.63;100.00
29169;BME280;16219;42.864;23.360;2022-08-21T06:22:44;95258.47;;;21.61;100.00
29169;BME280;16219;42.864;23.360;2022-08-21T06:25:11;95261.56;;;21.56;100.00
29169;BME280;16219;42.864;23.360;2022-08-21T06:27:39;95266.09;;;21.66;100.00
29169;BME280;16219;42.864;23.360;2022-08-21T06:30:10;95262.66;;;21.62;100.00
29169;BME280;16219;42.864;23.360;2022-08-21T06:32:39;95262.19;;;21.74;100.00
29169;BME280;16219;42.864;23.360;2022-08-21T06:35:07;95249.81;;;21.87;100.00
29169;BME280;16219;42.864;23.360;2022-08-21T06:37:34;95269.97;;;22.10;100.00
29169;BME280;16219;42.864;23.360;2022-08-21T06:40:02;95271.19;;;22.05;100.00
29169;BME280;16219;42.864;23.360;2022-08-21T06:42:31;95271.97;;;21.99;100.00
29169;BME280;16219;42.864;23.360;2022-08-21T06:44:59;95278.03;;;22.10;100.00
29169;BME280;16219;42.864;23.360;2022-08-21T06:47:28;95277.06;;;22.34;100.00
29169;BME280;16219;42.864;23.360;2022-08-21T06:49:55;95271.09;;;22.57;100.00
29169;BME280;16219;42.864;23.360;2022-08-21T06:52:23;95276.09;;;22.89;100.00
29169;BME280;16219;42.864;23.360;2022-08-21T06:54:50;95272.13;;;23.05;100.00
29169;BME280;16219;42.864;23.360;2022-08-21T06:57:18;95272.38;;;23.14;100.00
29169;BME280;16219;42.864;23.360;2022-08-21T06:59:45;95272.59;;;23.27;100.00
29169;BME280;16219;42.864;23.360;2022-08-21T07:02:12;95270.16;;;23.36;100.00
29169;BME280;16219;42.864;23.360;2022-08-21T07:04:41;95289.53;;;23.54;100.00
29169;BME280;16219;42.864;23.360;2022-08-21T07:07:09;95284.00;;;23.38;100.00
29169;BME280;16219;42.864;23.360;2022-08-21T07:09:37;95274.94;;;23.52;100.00
29169;BME280;16219;42.864;23.360;2022-08-21T07:12:06;95267.97;;;23.58;100.00
29169;BME280;16219;42.864;23.360;2022-08-21T07:14:34;95276.53;;;23.49;100.00
29169;BME280;16219;42.864;23.360;2022-08-21T07:17:01;95282.47;;;23.64;100.00
29169;BME280;16219;42.864;23.360;2022-08-21T07:19:29;95287.56;;;23.85;100.00
29169;BME280;16219;42.864;23.360;2022-08-21T07:22:00;95291.09;;;24.06;100.00
29169;BME280;16219;42.864;23.360;2022-08-21T07:24:28;95284.78;;;24.16;100.00
29169;BME280;16219;42.864;23.360;2022-08-21T07:26:56;95281.50;;;24.28;100.00
29169;BME280;16219;42.864;23.360;2022-08-21T07:29:23;95278.22;;;24.40;100.00
29169;BME280;16219;42.864;23.360;2022-08-21T07:31:50;95274.28;;;24.45;100.00
29169;BME280;16219;42.864;23.360;2022-08-21T07:34:18;95269.06;;;24.34;100.00
29169;BME280;16219;42.864;23.360;2022-08-21T07:36:45;95259.81;;;24.35;100.00
29169;BME280;16219;42.864;23.360;2022-08-21T07:39:14;95261.78;;;24.55;100.00
29169;BME280;16219;42.864;23.360;2022-08-21T07:41:41;95256.75;;;24.57;100.00
29169;BME280;16219;42.864;23.360;2022-08-21T07:44:08;95260.13;;;24.61;100.00
29169;BME280;16219;42.864;23.360;2022-08-21T07:46:35;95261.38;;;24.56;100.00
29169;BME280;16219;42.864;23.360;2022-08-21T07:49:02;95255.78;;;24.47;100.00
29169;BME280;16219;42.864;23.360;2022-08-21T07:51:30;95249.13;;;24.52;100.00
29169;BME280;16219;42.864;23.360;2022-08-21T07:53:59;95260.63;;;24.76;100.00
29169;BME280;16219;42.864;23.360;2022-08-21T07:56:30;95258.00;;;24.92;100.00
29169;BME280;16219;42.864;23.360;2022-08-21T07:58:57;95257.16;;;24.95;100.00
29169;BME280;16219;42.864;23.360;2022-08-21T08:01:25;95247.69;;;25.07;100.00
29169;BME280;16219;42.864;23.360;2022-08-21T08:03:52;95244.50;;;25.12;100.00
29169;BME280;16219;42.864;23.360;2022-08-21T08:06:20;95247.47;;;25.17;100.00
29169;BME280;16219;42.864;23.360;2022-08-21T08:08:48;95255.47;;;25.41;100.00
29169;BME280;16219;42.864;23.360;2022-08-21T08:11:15;95245.16;;;25.52;100.00
29169;BME280;16219;42.864;23.360;2022-08-21T08:13:45;95247.19;;;25.32;100.00
29169;BME280;16219;42.864;23.360;2022-08-21T08:16:13;95245.94;;;25.16;100.00
29169;BME280;16219;42.864;23.360;2022-08-21T08:18:41;95245.25;;;24.92;100.00
29169;BME280;16219;42.864;23.360;2022-08-21T08:21:11;95245.34;;;25.09;100.00
29169;BME280;16219;42.864;23.360;2022-08-21T08:23:41;95235.41;;;25.22;100.00
29169;BME280;16219;42.864;23.360;2022-08-21T08:26:10;95231.41;;;25.47;100.00
29169;BME280;16219;42.864;23.360;2022-08-21T08:28:37;95230.50;;;25.53;100.00
29169;BME280;16219;42.864;23.360;2022-08-21T08:31:06;95227.69;;;25.73;100.00
29169;BME280;16219;42.864;23.360;2022-08-21T08:33:33;95225.19;;;25.82;100.00
29169;BME280;16219;42.864;23.360;2022-08-21T08:36:00;95232.94;;;25.64;100.00
29169;BME280;16219;42.864;23.360;2022-08-21T08:38:28;95226.75;;;25.47;100.00
29169;BME280;16219;42.864;23.360;2022-08-21T08:41:00;95227.28;;;25.42;100.00
29169;BME280;16219;42.864;23.360;2022-08-21T08:43:29;95216.56;;;25.71;100.00
29169;BME280;16219;42.864;23.360;2022-08-21T08:45:58;95229.91;;;26.11;100.00
29169;BME280;16219;42.864;23.360;2022-08-21T08:48:43;95222.25;;;26.38;100.00
29169;BME280;16219;42.864;23.360;2022-08-21T08:51:17;95222.56;;;26.57;100.00
29169;BME280;16219;42.864;23.360;2022-08-21T08:53:51;95213.13;;;26.49;100.00
29169;BME280;16219;42.864;23.360;2022-08-21T08:56:25;95222.03;;;26.62;100.00
29169;BME280;16219;42.864;23.360;2022-08-21T08:58:56;95219.91;;;26.70;100.00
29169;BME280;16219;42.864;23.360;2022-08-21T09:01:26;95224.78;;;26.75;100.00
29169;BME280;16219;42.864;23.360;2022-08-21T09:03:56;95226.25;;;26.63;100.00
29169;BME280;16219;42.864;23.360;2022-08-21T09:07:00;95233.75;;;26.42;100.00
29169;BME280;16219;42.864;23.360;2022-08-21T09:09:31;95229.16;;;26.56;100.00
29169;BME280;16219;42.864;23.360;2022-08-21T09:12:05;95230.81;;;26.66;100.00
29169;BME280;16219;42.864;23.360;2022-08-21T09:14:50;95214.06;;;26.84;100.00
29169;BME280;16219;42.864;23.360;2022-08-21T09:17:35;95218.44;;;26.94;100.00
29169;BME280;16219;42.864;23.360;2022-08-21T09:20:19;95214.63;;;26.91;100.00
29169;BME280;16219;42.864;23.360;2022-08-21T09:23:03;95211.72;;;26.86;100.00
29169;BME280;16219;42.864;23.360;2022-08-21T09:25:41;95204.91;;;26.94;100.00
29169;BME280;16219;42.864;23.360;2022-08-21T09:28:09;95197.66;;;27.04;100.00
29169;BME280;16219;42.864;23.360;2022-08-21T09:30:40;95203.31;;;27.09;100.00
29169;BME280;16219;42.864;23.360;2022-08-21T09:33:09;95202.63;;;27.05;100.00
29169;BME280;16219;42.864;23.360;2022-08-21T09:35:51;95192.44;;;26.97;100.00
29169;BME280;16219;42.864;23.360;2022-08-21T09:38:28;95191.66;;;26.83;100.00
29169;BME280;16219;42.864;23.360;2022-08-21T09:41:00;95180.44;;;26.98;100.00
29169;BME280;16219;42.864;23.360;2022-08-21T09:43:28;95199.66;;;27.16;100.00
29169;BME280;16219;42.864;23.360;2022-08-21T09:46:05;95189.06;;;26.92;100.00
29169;BME280;16219;42.864;23.360;2022-08-21T09:48:41;95186.25;;;26.83;100.00
29169;BME280;16219;42.864;23.360;2022-08-21T09:51:14;95178.78;;;26.87;100.00
29169;BME280;16219;42.864;23.360;2022-08-21T09:53:45;95184.25;;;27.13;100.00
29169;BME280;16219;42.864;23.360;2022-08-21T09:56:21;95190.97;;;27.21;100.00
29169;BME280;16219;42.864;23.360;2022-08-21T09:59:16;95183.41;;;27.16;100.00
29169;BME280;16219;42.864;23.360;2022-08-21T10:01:46;95180.03;;;27.12;100.00
29169;BME280;16219;42.864;23.360;2022-08-21T10:04:14;95181.34;;;27.20;100.00
29169;BME280;16219;42.864;23.360;2022-08-21T10:06:43;95175.19;;;27.20;100.00
29169;BME280;16219;42.864;23.360;2022-08-21T10:09:13;95176.78;;;27.42;100.00
29169;BME280;16219;42.864;23.360;2022-08-21T10:11:46;95174.91;;;27.65;100.00
29169;BME280;16219;42.864;23.360;2022-08-21T10:14:25;95173.94;;;27.84;100.00
29169;BME280;16219;42.864;23.360;2022-08-21T10:17:01;95177.84;;;27.83;100.00
29169;BME280;16219;42.864;23.360;2022-08-21T10:19:36;95180.00;;;27.63;100.00
29169;BME280;16219;42.864;23.360;2022-08-21T10:22:19;95178.72;;;27.55;100.00
29169;BME280;16219;42.864;23.360;2022-08-21T10:24:54;95177.84;;;27.58;100.00
29169;BME280;16219;42.864;23.360;2022-08-21T10:27:34;95165.50;;;27.44;100.00
29169;BME280;16219;42.864;23.360;2022-08-21T10:30:09;95171.72;;;27.19;100.00
29169;BME280;16219;42.864;23.360;2022-08-21T10:32:50;95159.09;;;26.87;100.00
29169;BME280;16219;42.864;23.360;2022-08-21T10:35:23;95163.38;;;26.72;100.00
29169;BME280;16219;42.864;23.360;2022-08-21T10:38:08;95166.63;;;26.66;100.00
29169;BME280;16219;42.864;23.360;2022-08-21T10:40:48;95160.34;;;26.57;100.00
29169;BME280;16219;42.864;23.360;2022-08-21T10:43:24;95146.06;;;26.56;100.00
29169;BME280;16219;42.864;23.360;2022-08-21T10:46:02;95158.84;;;26.69;100.00
29169;BME280;16219;42.864;23.360;2022-08-21T10:48:36;95149.44;;;26.73;100.00
29169;BME280;16219;42.864;23.360;2022-08-21T10:51:10;95141.44;;;26.70;100.00
29169;BME280;16219;42.864;23.360;2022-08-21T10:53:58;95146.75;;;26.73;100.00
29169;BME280;16219;42.864;23.360;2022-08-21T10:56:29;95136.34;;;26.84;100.00
29169;BME280;16219;42.864;23.360;2022-08-21T10:59:07;95146.69;;;27.15;100.00
29169;BME280;16219;42.864;23.360;2022-08-21T11:01:42;95134.06;;;27.47;100.00
29169;BME280;16219;42.864;23.360;2022-08-21T11:04:12;95131.00;;;27.70;100.00
29169;BME280;16219;42.864;23.360;2022-08-21T11:06:47;95118.63;;;27.69;100.00
29169;BME280;16219;42.864;23.360;2022-08-21T11:09:20;95127.28;;;27.89;100.00
29169;BME280;16219;42.864;23.360;2022-08-21T11:11:50;95125.53;;;27.96;100.00
29169;BME280;16219;42.864;23.360;2022-08-21T11:14:25;95114.53;;;27.99;100.00
29169;BME280;16219;42.864;23.360;2022-08-21T11:17:02;95120.47;;;28.07;100.00
29169;BME280;16219;42.864;23.360;2022-08-21T11:19:40;95106.72;;;27.79;100.00
29169;BME280;16219;42.864;23.360;2022-08-21T11:22:14;95106.84;;;27.76;96.37
29169;BME280;16219;42.864;23.360;2022-08-21T11:24:50;95103.13;;;27.70;100.00
29169;BME280;16219;42.864;23.360;2022-08-21T11:27:22;95097.94;;;27.75;100.00
29169;BME280;16219;42.864;23.360;2022-08-21T11:29:54;95092.97;;;27.61;100.00
29169;BME280;16219;42.864;23.360;2022-08-21T11:32:38;95094.38;;;27.78;100.00
29169;BME280;16219;42.864;23.360;2022-08-21T11:35:15;95086.31;;;27.87;100.00
29169;BME280;16219;42.864;23.360;2022-08-21T11:37:57;95064.84;;;27.80;100.00
29169;BME280;16219;42.864;23.360;2022-08-21T11:40:37;95070.84;;;27.75;100.00
29169;BME280;16219;42.864;23.360;2022-08-21T11:43:14;95080.88;;;27.87;100.00
29169;BME280;16219;42.864;23.360;2022-08-21T11:45:46;95058.94;;;27.60;100.00
29169;BME280;16219;42.864;23.360;2022-08-21T11:48:26;95073.28;;;27.82;99.92
29169;BME280;16219;42.864;23.360;2022-08-21T11:50:56;95083.66;;;27.97;100.00
29169;BME280;16219;42.864;23.360;2022-08-21T11:53:28;95068.91;;;27.98;100.00
29169;BME280;16219;42.864;23.360;2022-08-21T11:56:00;95080.38;;;28.02;100.00
29169;BME280;16219;42.864;23.360;2022-08-21T11:58:32;95081.34;;;28.08;100.00
29169;BME280;16219;42.864;23.360;2022-08-21T12:01:05;95071.66;;;28.07;100.00
29169;BME280;16219;42.864;23.360;2022-08-21T12:03:36;95076.28;;;28.19;100.00
29169;BME280;16219;42.864;23.360;2022-08-21T12:06:07;95068.00;;;28.23;100.00
29169;BME280;16219;42.864;23.360;2022-08-21T12:08:37;95067.00;;;28.29;100.00
29169;BME280;16219;42.864;23.360;2022-08-21T12:11:08;95063.47;;;28.42;100.00
29169;BME280;16219;42.864;23.360;2022-08-21T12:13:38;95062.28;;;28.43;99.75
29169;BME280;16219;42.864;23.360;2022-08-21T12:16:07;95056.41;;;28.44;97.12
29169;BME280;16219;42.864;23.360;2022-08-21T12:18:35;95071.31;;;28.39;98.90
29169;BME280;16219;42.864;23.360;2022-08-21T12:21:16;95073.56;;;28.19;92.97
29169;BME280;16219;42.864;23.360;2022-08-21T12:23:46;95069.13;;;27.90;98.24
29169;BME280;16219;42.864;23.360;2022-08-21T12:26:26;95069.06;;;27.81;100.00
29169;BME280;16219;42.864;23.360;2022-08-21T12:29:16;95068.03;;;27.79;98.74
29169;BME280;16219;42.864;23.360;2022-08-21T12:31:50;95071.69;;;27.72;100.00
29169;BME280;16219;42.864;23.360;2022-08-21T12:34:17;95076.47;;;27.68;100.00
29169;BME280;16219;42.864;23.360;2022-08-21T12:36:52;95078.34;;;27.58;98.05
29169;BME280;16219;42.864;23.360;2022-08-21T12:39:24;95074.44;;;27.59;100.00
29169;BME280;16219;42.864;23.360;2022-08-21T12:41:57;95076.41;;;27.59;100.00
29169;BME280;16219;42.864;23.360;2022-08-21T12:44:32;95086.03;;;27.60;100.00
29169;BME280;16219;42.864;23.360;2022-08-21T12:47:04;95082.69;;;27.56;100.00
29169;BME280;16219;42.864;23.360;2022-08-21T12:49:35;95078.13;;;27.65;100.00
29169;BME280;16219;42.864;23.360;2022-08-21T12:52:09;95072.81;;;27.62;100.00
29169;BME280;16219;42.864;23.360;2022-08-21T12:54:40;95077.47;;;27.61;100.00
29169;BME280;16219;42.864;23.360;2022-08-21T12:57:18;95074.78;;;27.61;100.00